Skip Navigation LinksHome page > Weather > Current weather Skip Navigation Links

Current Weather

Ndjamena, Chad

For information only: do not use for flight planning or navigation.
Latest weather
Observation time Sunday, May 29, 2016 9:00 PM WAT
Local time Sunday, May 29, 2016 10:05 PM WAT
Flight conditions Visual Meteorological Conditions
Winds
Wind direction South (180°)
Wind speed 5 mph
Visibility 6.2 mi.
Sky condition
Ceiling unlimited
Sky clear
Temperature 90°F
Dewpoint 63°F
Altimeter 29.80 in.Hg
Derived measurements
Relative humidity 41%
Heat index 90°F
Density altitude 2644 ft.
Remarks
Ceiling and visibility OK.
No significant changes expected in the next two hours.
METAR FTTJ 292000Z 18004KT CAVOK 32/17 Q1009 NOSIG

Settings

Location code

InnerDrive.Weather 4.0.5722.1 Release CLR 4.0.30319.34209
Copyright ©2015 Inner Drive Technology. All rights reserved. Portions Copyright ©1986-2015 David Braverman.

Find weather

Site navigation


Skip Navigation Links

Place info

Page info

PayPal - The safer, easier way to pay online!

Return home.

Copyright ©2016 Inner Drive Technology. Purveyors of fine, hand-crafted computer software. Page printed 2016-05-29T21:05:12 UTC.